createdAt,value
2022-09-29T00:01:04.690Z,0.40
2022-09-29T00:03:31.597Z,0.77
2022-09-29T00:05:58.730Z,3.42
2022-09-29T00:08:28.848Z,0.40
2022-09-29T00:10:56.078Z,0.50
2022-09-29T00:13:23.366Z,0.60
2022-09-29T00:15:59.628Z,1.58
2022-09-29T00:18:28.446Z,0.55
2022-09-29T00:21:11.034Z,0.40
2022-09-29T00:23:38.871Z,0.40
2022-09-29T00:26:16.031Z,2.20
2022-09-29T00:28:49.568Z,0.40
2022-09-29T00:31:16.813Z,0.38
2022-09-29T00:33:43.739Z,0.32
2022-09-29T00:36:14.042Z,0.40
2022-09-29T00:38:44.205Z,0.77
2022-09-29T00:41:34.704Z,1.02
2022-09-29T00:44:13.597Z,0.80
2022-09-29T00:47:01.117Z,1.17
2022-09-29T00:49:42.181Z,2.13
2022-09-29T00:52:20.479Z,0.98
2022-09-29T00:55:13.997Z,2.60
2022-09-29T00:58:12.496Z,2.65
2022-09-29T01:00:40.222Z,2.10
2022-09-29T01:03:21.866Z,2.22
2022-09-29T01:05:59.640Z,1.33
2022-09-29T01:08:52.857Z,0.95
2022-09-29T01:11:22.537Z,1.10
2022-09-29T01:13:50.592Z,0.60
2022-09-29T01:16:17.840Z,0.47
2022-09-29T01:18:46.654Z,0.57
2022-09-29T01:21:48.598Z,1.25
2022-09-29T01:24:40.214Z,0.50
2022-09-29T01:27:58.259Z,0.50
2022-09-29T01:31:06.323Z,4.70
2022-09-29T01:33:51.917Z,1.75
2022-09-29T01:37:31.991Z,0.43
2022-09-29T01:40:29.504Z,0.80
2022-09-29T01:43:08.160Z,0.45
2022-09-29T01:46:01.893Z,0.40
2022-09-29T01:48:34.516Z,0.50
2022-09-29T01:51:13.458Z,0.60
2022-09-29T01:53:50.477Z,0.47
2022-09-29T01:56:33.953Z,0.55
2022-09-29T01:59:12.181Z,0.95
2022-09-29T02:01:43.637Z,0.80
2022-09-29T02:04:29.445Z,0.70
2022-09-29T02:07:13.759Z,0.45
2022-09-29T02:09:47.344Z,0.65
2022-09-29T02:12:25.653Z,0.60
2022-09-29T02:14:54.296Z,0.55
2022-09-29T02:17:28.066Z,0.50
2022-09-29T02:19:55.149Z,0.40
2022-09-29T02:22:22.125Z,0.70
2022-09-29T02:24:54.713Z,0.70
2022-09-29T02:27:23.017Z,1.67
2022-09-29T02:29:51.049Z,0.60
2022-09-29T02:32:20.008Z,1.52
2022-09-29T02:34:52.140Z,0.73
2022-09-29T02:37:48.569Z,0.60
2022-09-29T02:41:02.929Z,0.90
2022-09-29T02:43:54.427Z,0.68
2022-09-29T02:46:46.005Z,0.47
2022-09-29T02:50:14.390Z,0.60
2022-09-29T02:53:11.929Z,0.40
2022-09-29T02:56:21.549Z,0.40
2022-09-29T02:59:25.487Z,0.55
2022-09-29T03:01:57.702Z,0.47
2022-09-29T03:04:28.013Z,0.70
2022-09-29T03:06:55.196Z,0.57
2022-09-29T03:09:22.394Z,0.85
2022-09-29T03:11:49.183Z,0.68
2022-09-29T03:14:16.200Z,0.55
2022-09-29T03:16:43.746Z,0.40
2022-09-29T03:19:11.629Z,0.85
2022-09-29T03:21:38.442Z,0.95
2022-09-29T03:24:06.213Z,1.05
2022-09-29T03:26:33.502Z,0.68
2022-09-29T03:29:00.413Z,0.82
2022-09-29T03:31:27.398Z,0.68
2022-09-29T03:33:54.316Z,0.70
2022-09-29T03:36:21.219Z,0.90
2022-09-29T03:38:48.091Z,1.10
2022-09-29T03:41:15.840Z,1.17
2022-09-29T03:43:42.906Z,0.90
2022-09-29T03:46:10.931Z,1.15
2022-09-29T03:48:37.868Z,0.80
2022-09-29T03:51:06.017Z,2.30
2022-09-29T03:53:35.634Z,1.33
2022-09-29T03:56:02.872Z,0.63
2022-09-29T03:58:29.733Z,0.90
2022-09-29T04:00:56.998Z,0.90
2022-09-29T04:03:23.883Z,0.90
2022-09-29T04:05:50.841Z,0.82
2022-09-29T04:08:17.747Z,1.42
2022-09-29T04:10:47.781Z,1.70
2022-09-29T04:13:19.649Z,1.00
2022-09-29T04:15:46.896Z,1.40
2022-09-29T04:18:13.826Z,1.60
2022-09-29T04:20:40.697Z,0.82
2022-09-29T04:23:07.505Z,0.73
2022-09-29T04:25:34.541Z,0.98
2022-09-29T04:28:01.707Z,1.10
2022-09-29T04:30:28.590Z,2.47
2022-09-29T04:32:55.338Z,1.27
2022-09-29T04:35:22.177Z,1.13
2022-09-29T04:37:49.027Z,1.33
2022-09-29T04:40:17.092Z,1.58
2022-09-29T04:42:43.991Z,1.20
2022-09-29T04:45:11.226Z,0.98
2022-09-29T04:47:38.108Z,1.08
2022-09-29T04:50:05.598Z,1.08
2022-09-29T04:52:32.427Z,1.27
2022-09-29T04:54:59.288Z,0.95
2022-09-29T04:57:26.183Z,1.30
2022-09-29T04:59:53.006Z,1.08
2022-09-29T05:02:20.006Z,0.93
2022-09-29T05:04:47.651Z,0.88
2022-09-29T05:07:15.398Z,1.17
2022-09-29T05:09:42.239Z,1.35
2022-09-29T05:12:09.038Z,0.95
2022-09-29T05:14:35.839Z,3.67
2022-09-29T05:17:02.641Z,1.40
2022-09-29T05:19:30.158Z,1.77
2022-09-29T05:21:56.946Z,1.08
2022-09-29T05:24:24.289Z,1.38
2022-09-29T05:26:54.797Z,1.30
2022-09-29T05:29:24.478Z,2.17
2022-09-29T05:31:52.024Z,2.20
2022-09-29T05:34:18.962Z,1.10
2022-09-29T05:36:45.806Z,1.45
2022-09-29T05:39:13.022Z,1.35
2022-09-29T05:41:40.163Z,2.90
2022-09-29T05:44:07.320Z,1.55
2022-09-29T05:46:34.116Z,1.05
2022-09-29T05:49:01.347Z,1.02
2022-09-29T05:51:28.989Z,1.30
2022-09-29T05:53:56.149Z,1.27
2022-09-29T05:56:26.651Z,1.80
2022-09-29T05:58:57.112Z,1.02
2022-09-29T06:01:26.330Z,2.22
2022-09-29T06:03:57.214Z,4.20
2022-09-29T06:06:28.600Z,1.15
2022-09-29T06:08:58.107Z,1.50
2022-09-29T06:11:33.430Z,1.48
2022-09-29T06:14:02.431Z,2.17
2022-09-29T06:16:32.444Z,1.75
2022-09-29T06:19:01.486Z,2.03
2022-09-29T06:21:30.740Z,2.28
2022-09-29T06:23:58.935Z,3.28
2022-09-29T06:26:28.094Z,3.03
2022-09-29T06:28:56.271Z,3.40
2022-09-29T06:31:27.060Z,2.53
2022-09-29T06:36:58.788Z,1.30
2022-09-29T06:39:26.144Z,1.30
2022-09-29T06:41:56.424Z,1.48
2022-09-29T06:44:26.788Z,1.73
2022-09-29T06:46:55.475Z,1.00
2022-09-29T06:49:24.078Z,1.00
2022-09-29T06:51:51.706Z,1.13
2022-09-29T06:54:22.055Z,1.17
2022-09-29T06:56:51.090Z,1.10
2022-09-29T06:59:18.349Z,0.93
2022-09-29T07:01:49.663Z,0.98
2022-09-29T07:04:16.835Z,0.80
2022-09-29T07:06:44.746Z,1.20
2022-09-29T07:09:16.050Z,1.13
2022-09-29T07:11:48.572Z,0.90
2022-09-29T07:14:17.492Z,0.90
2022-09-29T07:16:44.897Z,0.63
2022-09-29T07:19:11.895Z,1.65
2022-09-29T07:21:38.751Z,0.70
2022-09-29T07:24:05.796Z,0.70
2022-09-29T07:26:32.843Z,1.17
2022-09-29T07:28:59.705Z,0.57
2022-09-29T07:31:26.731Z,1.00
2022-09-29T07:33:53.613Z,1.77
2022-09-29T07:36:21.474Z,1.10
2022-09-29T07:38:50.749Z,0.95
2022-09-29T07:41:21.619Z,0.70
2022-09-29T07:46:15.489Z,0.77
2022-09-29T07:48:43.581Z,0.70
2022-09-29T07:51:20.486Z,0.57
2022-09-29T07:53:48.260Z,0.50
2022-09-29T07:56:22.296Z,0.47
2022-09-29T07:58:50.745Z,4.97
2022-09-29T08:01:20.003Z,0.50
2022-09-29T08:03:54.376Z,0.98
2022-09-29T08:06:23.530Z,3.22
2022-09-29T08:09:02.764Z,0.57
2022-09-29T08:14:01.267Z,3.50
2022-09-29T08:16:30.632Z,0.40
2022-09-29T08:18:58.015Z,0.40
2022-09-29T08:21:25.069Z,0.55
2022-09-29T08:23:51.969Z,0.40
2022-09-29T08:26:34.273Z,0.75
2022-09-29T08:29:08.784Z,0.55
2022-09-29T08:31:40.131Z,3.55
2022-09-29T08:34:07.622Z,0.57
2022-09-29T08:36:34.505Z,0.65
2022-09-29T08:39:01.500Z,0.28
2022-09-29T08:41:52.945Z,0.30
2022-09-29T08:44:45.628Z,0.30
2022-09-29T08:47:12.689Z,0.30
2022-09-29T08:49:51.109Z,0.30
2022-09-29T08:52:28.448Z,0.30
2022-09-29T08:55:23.134Z,0.38
2022-09-29T08:58:01.351Z,0.20
2022-09-29T09:00:42.635Z,0.25
2022-09-29T09:03:20.707Z,0.30
2022-09-29T09:06:21.145Z,0.28
2022-09-29T09:09:59.332Z,0.40
2022-09-29T09:13:07.615Z,2.65
2022-09-29T09:15:46.462Z,0.50
2022-09-29T09:18:51.697Z,2.20
2022-09-29T09:21:58.432Z,0.45
2022-09-29T09:24:43.196Z,0.43
2022-09-29T09:27:20.659Z,0.30
2022-09-29T09:29:54.410Z,0.32
2022-09-29T09:32:30.373Z,0.20
2022-09-29T09:35:21.811Z,0.45
2022-09-29T09:37:53.970Z,0.40
2022-09-29T09:43:10.780Z,0.30
2022-09-29T09:45:51.694Z,10.50
2022-09-29T09:51:24.157Z,4.85
2022-09-29T09:53:58.890Z,0.20
2022-09-29T09:56:47.551Z,2.60
2022-09-29T09:59:38.371Z,0.38
2022-09-29T10:02:05.483Z,0.30
2022-09-29T10:04:33.891Z,0.30
2022-09-29T10:07:00.889Z,0.50
2022-09-29T10:09:28.480Z,0.30
2022-09-29T10:11:55.491Z,0.50
2022-09-29T10:14:27.021Z,0.38
2022-09-29T10:17:07.282Z,0.10
2022-09-29T10:19:58.865Z,0.20
2022-09-29T10:22:28.968Z,0.20
2022-09-29T10:25:19.559Z,0.60
2022-09-29T10:27:52.644Z,1.52
2022-09-29T10:30:30.027Z,0.28
2022-09-29T10:33:09.009Z,0.35
2022-09-29T10:35:42.258Z,0.30
2022-09-29T10:38:27.145Z,0.40
2022-09-29T10:41:04.459Z,0.40
2022-09-29T10:43:41.224Z,0.40
2022-09-29T10:46:38.262Z,0.35
2022-09-29T10:49:29.894Z,1.75
2022-09-29T10:52:06.971Z,0.28
2022-09-29T10:54:39.946Z,0.38
2022-09-29T10:57:16.054Z,0.77
2022-09-29T10:59:53.140Z,1.20
2022-09-29T11:02:43.784Z,0.80
2022-09-29T11:05:21.790Z,0.30
2022-09-29T11:07:52.302Z,0.40
2022-09-29T11:10:36.835Z,0.65
2022-09-29T11:13:22.556Z,1.40
2022-09-29T11:15:49.747Z,0.50
2022-09-29T11:18:28.576Z,0.50
2022-09-29T11:21:28.927Z,0.40
2022-09-29T11:24:42.678Z,1.33
2022-09-29T11:28:12.581Z,0.63
2022-09-29T11:31:23.709Z,0.30
2022-09-29T11:37:14.125Z,0.68
2022-09-29T11:40:03.185Z,0.20
2022-09-29T11:42:39.819Z,0.35
2022-09-29T11:45:15.239Z,0.60
2022-09-29T11:48:45.903Z,0.32
2022-09-29T11:51:45.519Z,0.20
2022-09-29T11:54:38.393Z,0.88
2022-09-29T11:57:19.660Z,0.30
2022-09-29T12:00:07.657Z,0.28
2022-09-29T12:03:09.328Z,0.10
2022-09-29T12:06:05.088Z,0.20
2022-09-29T12:09:02.839Z,0.30
2022-09-29T12:12:22.612Z,0.80
2022-09-29T12:15:33.344Z,0.30
2022-09-29T12:18:15.635Z,0.30
2022-09-29T12:20:47.067Z,0.63
2022-09-29T12:23:20.639Z,0.47
2022-09-29T12:26:11.062Z,0.73
2022-09-29T12:28:45.698Z,0.28
2022-09-29T12:31:27.722Z,0.50
2022-09-29T12:34:06.070Z,0.38
2022-09-29T12:37:04.397Z,0.70
2022-09-29T12:40:10.534Z,0.60
2022-09-29T12:42:52.867Z,0.60
2022-09-29T12:45:26.446Z,2.05
2022-09-29T12:48:02.432Z,1.13
2022-09-29T12:50:39.709Z,0.60
2022-09-29T12:53:35.743Z,0.80
2022-09-29T12:56:16.954Z,0.60
2022-09-29T12:58:58.033Z,0.50
2022-09-29T13:01:33.825Z,0.60
2022-09-29T13:04:26.478Z,0.70
2022-09-29T13:06:56.220Z,1.20
2022-09-29T13:10:14.411Z,4.47
2022-09-29T13:12:55.811Z,1.10
2022-09-29T13:15:47.569Z,1.17
2022-09-29T13:19:06.638Z,0.85
2022-09-29T13:22:34.951Z,1.60
2022-09-29T13:25:44.724Z,1.60
2022-09-29T13:28:41.657Z,2.25
2022-09-29T13:31:16.820Z,1.20
2022-09-29T13:33:50.119Z,2.25
2022-09-29T13:36:36.281Z,1.58
2022-09-29T13:39:19.952Z,1.10
2022-09-29T13:41:47.241Z,1.13
2022-09-29T13:44:17.787Z,1.33
2022-09-29T13:46:44.683Z,2.55
2022-09-29T13:49:13.365Z,1.50
2022-09-29T13:51:50.476Z,1.40
2022-09-29T13:54:41.218Z,1.35
2022-09-29T13:57:15.135Z,2.00
2022-09-29T13:59:47.945Z,1.85
2022-09-29T14:02:20.756Z,1.80
2022-09-29T14:04:50.373Z,1.48
2022-09-29T14:08:08.824Z,2.53
2022-09-29T14:10:35.594Z,1.42
2022-09-29T14:13:15.624Z,2.42
2022-09-29T14:15:52.288Z,2.20
2022-09-29T14:18:36.811Z,1.83
2022-09-29T14:21:11.566Z,2.15
2022-09-29T14:23:53.046Z,3.28
2022-09-29T14:26:48.078Z,1.85
2022-09-29T14:29:27.179Z,2.20
2022-09-29T14:31:58.861Z,2.40
2022-09-29T14:34:32.936Z,2.42
2022-09-29T14:37:01.625Z,2.38
2022-09-29T14:39:31.367Z,2.42
2022-09-29T14:41:58.308Z,2.13
2022-09-29T14:44:54.139Z,3.00
2022-09-29T14:47:58.759Z,2.30
2022-09-29T14:51:08.757Z,2.33
2022-09-29T14:53:56.699Z,2.72
2022-09-29T14:56:52.196Z,3.88
2022-09-29T15:00:01.801Z,2.20
2022-09-29T15:02:31.460Z,2.45
2022-09-29T15:04:58.430Z,2.90
2022-09-29T15:07:28.487Z,3.03
2022-09-29T15:09:58.872Z,3.00
2022-09-29T15:12:32.397Z,3.05
2022-09-29T15:15:01.433Z,2.38
2022-09-29T15:17:57.091Z,2.28
2022-09-29T15:20:53.558Z,2.83
2022-09-29T15:23:50.984Z,2.63
2022-09-29T15:26:19.264Z,2.10
2022-09-29T15:28:46.468Z,2.38
2022-09-29T15:31:19.250Z,1.83
2022-09-29T15:33:47.918Z,2.20
2022-09-29T15:36:23.128Z,2.20
2022-09-29T15:39:15.404Z,2.00
2022-09-29T15:41:44.894Z,2.38
2022-09-29T15:44:20.145Z,2.17
2022-09-29T15:46:57.867Z,2.15
2022-09-29T15:49:31.279Z,1.85
2022-09-29T15:52:13.263Z,1.92
2022-09-29T15:54:46.901Z,2.22
2022-09-29T15:57:47.002Z,2.47
2022-09-29T16:00:22.812Z,3.00
2022-09-29T16:03:11.072Z,4.82
2022-09-29T16:05:45.336Z,3.20
2022-09-29T16:08:22.980Z,3.60
2022-09-29T16:10:58.410Z,2.50
2022-09-29T16:13:36.457Z,2.75
2022-09-29T16:16:10.897Z,2.90
2022-09-29T16:18:49.655Z,2.97
2022-09-29T16:21:23.770Z,3.38
2022-09-29T16:24:05.973Z,2.90
2022-09-29T16:26:43.658Z,2.78
2022-09-29T16:29:19.028Z,2.58
2022-09-29T16:31:48.905Z,2.03
2022-09-29T16:34:22.106Z,1.85
2022-09-29T16:37:06.595Z,1.48
2022-09-29T16:39:49.101Z,1.83
2022-09-29T16:42:27.119Z,1.10
2022-09-29T16:44:55.972Z,1.38
2022-09-29T16:47:27.283Z,1.35
2022-09-29T16:50:14.350Z,1.92
2022-09-29T16:52:49.062Z,1.73
2022-09-29T16:55:22.309Z,1.52
2022-09-29T16:57:58.731Z,2.40
2022-09-29T17:00:26.155Z,2.55
2022-09-29T17:02:57.940Z,3.03
2022-09-29T17:05:26.098Z,2.72
2022-09-29T17:08:02.875Z,3.38
2022-09-29T17:10:30.328Z,3.63
2022-09-29T17:12:58.041Z,2.78
2022-09-29T17:15:25.876Z,4.25
2022-09-29T17:20:55.882Z,3.72
2022-09-29T17:23:22.815Z,5.50
2022-09-29T17:25:50.303Z,3.30
2022-09-29T17:28:24.856Z,3.22
2022-09-29T17:30:55.384Z,3.53
2022-09-29T17:33:22.397Z,3.35
2022-09-29T17:35:55.211Z,3.65
2022-09-29T17:38:23.985Z,5.57
2022-09-29T17:41:02.369Z,4.57
2022-09-29T17:43:33.653Z,5.05
2022-09-29T17:46:01.964Z,4.82
2022-09-29T17:48:30.410Z,4.72
2022-09-29T17:50:59.404Z,5.38
2022-09-29T17:53:26.661Z,6.30
2022-09-29T17:55:57.239Z,6.10
2022-09-29T17:58:24.630Z,7.80
2022-09-29T18:00:53.925Z,9.25
2022-09-29T18:03:22.309Z,6.22
2022-09-29T18:05:58.423Z,5.40
2022-09-29T18:08:27.814Z,5.82
2022-09-29T18:11:00.813Z,5.88
2022-09-29T18:13:31.703Z,6.38
2022-09-29T18:16:01.313Z,6.05
2022-09-29T18:18:28.469Z,5.43
2022-09-29T18:20:55.598Z,5.97
2022-09-29T18:23:24.231Z,5.43
2022-09-29T18:25:53.087Z,6.60
2022-09-29T18:28:20.371Z,6.57
2022-09-29T18:30:53.949Z,5.90
2022-09-29T18:33:21.136Z,5.72
2022-09-29T18:35:55.179Z,5.53
2022-09-29T18:38:22.689Z,5.63
2022-09-29T18:40:56.519Z,7.13
2022-09-29T18:43:25.839Z,5.00
2022-09-29T18:45:55.266Z,5.28
2022-09-29T18:48:22.313Z,5.03
2022-09-29T18:50:53.403Z,4.22
2022-09-29T18:53:24.026Z,4.22
2022-09-29T18:55:58.921Z,3.72
2022-09-29T18:58:25.810Z,4.60
2022-09-29T19:00:56.051Z,4.35
2022-09-29T19:03:27.056Z,4.50
2022-09-29T19:05:55.764Z,4.50
2022-09-29T19:08:23.053Z,4.70
2022-09-29T19:11:00.706Z,4.53
2022-09-29T19:13:28.482Z,5.47
2022-09-29T19:15:59.483Z,6.00
2022-09-29T19:18:27.131Z,4.75
2022-09-29T19:20:57.966Z,4.50
2022-09-29T19:23:25.885Z,3.97
2022-09-29T19:25:55.370Z,4.97
2022-09-29T19:28:23.310Z,4.68
2022-09-29T19:30:50.964Z,4.90
2022-09-29T19:33:21.856Z,5.18
2022-09-29T19:38:19.468Z,3.95
2022-09-29T19:40:48.086Z,4.55
2022-09-29T19:43:15.476Z,5.60
2022-09-29T19:45:43.702Z,4.43
2022-09-29T19:48:16.842Z,5.50
2022-09-29T19:51:02.607Z,9.25
2022-09-29T19:53:30.008Z,5.07
2022-09-29T19:55:57.098Z,5.75
2022-09-29T19:58:24.603Z,5.85
2022-09-29T20:00:57.453Z,6.20
2022-09-29T20:03:24.911Z,6.40
2022-09-29T20:05:51.734Z,5.88
2022-09-29T20:08:18.568Z,5.60
2022-09-29T20:10:45.392Z,4.82
2022-09-29T20:13:14.768Z,5.10
2022-09-29T20:15:44.866Z,4.22
2022-09-29T20:18:13.309Z,5.32
2022-09-29T20:20:42.439Z,4.63
2022-09-29T20:23:09.283Z,4.47
2022-09-29T20:25:36.107Z,4.55
2022-09-29T20:28:03.244Z,4.25
2022-09-29T20:30:30.182Z,4.45
2022-09-29T20:32:57.030Z,4.68
2022-09-29T20:35:24.137Z,4.95
2022-09-29T20:37:51.060Z,4.25
2022-09-29T20:40:18.093Z,4.43
2022-09-29T20:42:46.152Z,4.55
2022-09-29T20:45:13.002Z,4.45
2022-09-29T20:47:39.835Z,4.25
2022-09-29T20:50:07.317Z,4.57
2022-09-29T20:52:34.172Z,4.00
2022-09-29T20:55:02.474Z,3.47
2022-09-29T20:57:29.356Z,3.25
2022-09-29T20:59:56.167Z,3.42
2022-09-29T21:02:23.130Z,3.83
2022-09-29T21:04:50.138Z,3.97
2022-09-29T21:07:35.465Z,3.75
2022-09-29T21:10:04.375Z,3.50
2022-09-29T21:12:32.519Z,3.65
2022-09-29T21:15:00.202Z,3.17
2022-09-29T21:17:27.435Z,3.63
2022-09-29T21:19:54.591Z,3.28
2022-09-29T21:22:27.215Z,3.08
2022-09-29T21:24:54.919Z,3.33
2022-09-29T21:27:21.779Z,3.60
2022-09-29T21:29:48.647Z,2.83
2022-09-29T21:32:15.725Z,3.30
2022-09-29T21:34:42.497Z,3.78
2022-09-29T21:37:10.118Z,3.53
2022-09-29T21:39:36.989Z,3.20
2022-09-29T21:42:04.364Z,3.45
2022-09-29T21:44:31.199Z,3.92
2022-09-29T21:46:58.022Z,3.67
2022-09-29T21:49:24.993Z,3.60
2022-09-29T21:51:51.976Z,6.90
2022-09-29T21:54:22.839Z,3.63
2022-09-29T21:56:51.385Z,4.13
2022-09-29T21:59:21.524Z,7.00
2022-09-29T22:01:49.040Z,3.63
2022-09-29T22:04:16.421Z,3.60
2022-09-29T22:06:44.877Z,3.75
2022-09-29T22:09:17.064Z,3.28
2022-09-29T22:11:44.603Z,3.38
2022-09-29T22:14:13.827Z,3.85
2022-09-29T22:16:40.720Z,3.42
2022-09-29T22:19:24.606Z,3.53
2022-09-29T22:21:53.705Z,3.85
2022-09-29T22:24:20.625Z,4.57
2022-09-29T22:26:47.445Z,4.47
2022-09-29T22:29:14.316Z,4.28
2022-09-29T22:31:41.288Z,4.20
2022-09-29T22:34:10.626Z,4.68
2022-09-29T22:36:37.481Z,4.38
2022-09-29T22:39:06.588Z,3.95
2022-09-29T22:41:36.618Z,4.28
2022-09-29T22:44:04.148Z,4.32
2022-09-29T22:46:32.096Z,4.47
2022-09-29T22:48:59.758Z,5.47
2022-09-29T22:51:26.892Z,4.90
2022-09-29T22:53:53.771Z,4.60
2022-09-29T22:56:28.430Z,4.38
2022-09-29T22:59:01.289Z,4.45
2022-09-29T23:01:28.801Z,4.47
2022-09-29T23:03:56.118Z,4.38
2022-09-29T23:06:22.968Z,4.13
2022-09-29T23:08:49.951Z,4.55
2022-09-29T23:11:20.038Z,4.65
2022-09-29T23:13:47.712Z,4.60
2022-09-29T23:16:16.746Z,4.00
2022-09-29T23:18:46.021Z,5.13
2022-09-29T23:21:19.084Z,4.65
2022-09-29T23:23:51.310Z,3.95
2022-09-29T23:26:18.733Z,4.10
2022-09-29T23:28:45.921Z,3.85
2022-09-29T23:31:13.020Z,3.60
2022-09-29T23:33:39.911Z,4.80
2022-09-29T23:36:13.734Z,4.38
2022-09-29T23:39:01.948Z,4.35
2022-09-29T23:41:30.500Z,4.32
2022-09-29T23:44:00.759Z,3.75
2022-09-29T23:46:32.691Z,3.97
2022-09-29T23:49:02.634Z,4.38
2022-09-29T23:51:33.169Z,3.92
2022-09-29T23:54:00.476Z,4.35
2022-09-29T23:56:27.598Z,4.13
2022-09-29T23:58:55.256Z,4.53
